LFSN/ENC METAR and TAF weather

Enter ICAO airport designator
Station Type Date Time Source
LFSN METAR 2021/04/13 08:00 UTC NOAA

LFSN 130800Z AUTO 04012KT 9999 FEW015 BKN032 BKN047 04/01 Q1031


Station Type Date Time Source
LFSN Decoded METAR 2021/04/13 08:00 UTC NOAA

Nancy / Essey, France (LFSN) 48-41N 006-13E 217M
Apr 13, 2021 - 04:00 AM EDT / 2021.04.13 0800 UTC
Wind: from the NE (040 degrees) at 14 MPH (12 KT):0
Visibility: greater than 7 mile(s):0
Sky conditions: mostly cloudy
Temperature: 39 F (4 C)
Dew Point: 33 F (1 C)
Relative Humidity: 80%
Pressure (altimeter): 30.45 in. Hg (1031 hPa)
ob: LFSN 130800Z AUTO 04012KT 9999 FEW015 BKN032 BKN047 04/01 Q1031
cycle: 8

Station Type Date Time Source
LFSN TAF 2012/03/14 16:58 UTC NOAA

TAF LFSN 141600Z 1416/1512 CNL

Example: see airport list